createdAt,value
2019-02-17T00:02:16.787Z,24.70
2019-02-17T00:04:47.258Z,25.65
2019-02-17T00:07:17.004Z,26.05
2019-02-17T00:09:47.059Z,24.77
2019-02-17T00:12:16.825Z,24.25
2019-02-17T00:14:46.600Z,25.88
2019-02-17T00:17:16.299Z,25.17
2019-02-17T00:19:46.051Z,25.52
2019-02-17T00:22:15.762Z,25.25
2019-02-17T00:24:45.428Z,23.90
2019-02-17T00:27:15.211Z,23.15
2019-02-17T00:29:45.002Z,22.73
2019-02-17T00:32:14.680Z,22.60
2019-02-17T00:34:44.359Z,22.40
2019-02-17T00:37:14.034Z,22.40
2019-02-17T00:39:43.723Z,22.85
2019-02-17T00:42:13.534Z,23.85
2019-02-17T00:44:43.290Z,21.57
2019-02-17T00:47:12.969Z,23.12
2019-02-17T00:49:42.679Z,21.95
2019-02-17T00:52:12.439Z,21.75
2019-02-17T00:54:42.187Z,21.20
2019-02-17T00:57:13.397Z,20.57
2019-02-17T00:59:43.269Z,21.85
2019-02-17T01:02:12.968Z,21.35
2019-02-17T01:04:42.787Z,20.35
2019-02-17T01:07:12.560Z,20.48
2019-02-17T01:09:42.306Z,21.30
2019-02-17T01:12:12.800Z,21.25
2019-02-17T01:14:42.540Z,21.73
2019-02-17T01:17:12.220Z,19.60
2019-02-17T01:19:41.891Z,20.62
2019-02-17T01:24:51.328Z,20.68
2019-02-17T01:27:21.096Z,20.25
2019-02-17T01:29:50.772Z,19.45
2019-02-17T01:32:20.548Z,18.27
2019-02-17T01:34:50.232Z,18.17
2019-02-17T01:37:19.904Z,18.07
2019-02-17T01:39:51.685Z,17.95
2019-02-17T01:42:21.406Z,17.75
2019-02-17T01:44:51.163Z,18.02
2019-02-17T01:47:20.921Z,18.45
2019-02-17T01:49:50.684Z,17.75
2019-02-17T01:52:20.356Z,18.52
2019-02-17T01:54:50.120Z,17.48
2019-02-17T01:57:19.815Z,18.55
2019-02-17T01:59:49.557Z,18.45
2019-02-17T02:02:19.227Z,18.40
2019-02-17T02:04:48.896Z,18.07
2019-02-17T02:07:18.612Z,18.37
2019-02-17T02:09:48.326Z,19.07
2019-02-17T02:12:18.011Z,18.32
2019-02-17T02:14:47.740Z,18.50
2019-02-17T02:17:17.419Z,18.10
2019-02-17T02:19:47.096Z,19.62
2019-02-17T02:22:16.862Z,19.00
2019-02-17T02:24:46.523Z,17.67
2019-02-17T02:27:17.293Z,18.57
2019-02-17T02:29:48.124Z,18.55
2019-02-17T02:32:17.830Z,19.37
2019-02-17T02:34:47.487Z,19.35
2019-02-17T02:37:17.173Z,19.00
2019-02-17T02:39:46.857Z,18.85
2019-02-17T02:42:16.521Z,19.75
2019-02-17T02:44:48.568Z,18.48
2019-02-17T02:47:17.571Z,19.80
2019-02-17T02:49:47.231Z,20.50
2019-02-17T02:52:16.905Z,19.80
2019-02-17T02:54:46.578Z,20.90
2019-02-17T02:57:16.341Z,22.05
2019-02-17T02:59:52.331Z,23.75
2019-02-17T03:02:17.441Z,22.82
2019-02-17T03:04:47.116Z,24.70
2019-02-17T03:07:16.814Z,23.83
2019-02-17T03:09:46.631Z,24.65
2019-02-17T03:12:16.299Z,24.07
2019-02-17T03:14:45.989Z,23.57
2019-02-17T03:17:15.653Z,23.85
2019-02-17T03:19:45.487Z,24.72
2019-02-17T03:22:15.237Z,23.60
2019-02-17T03:24:45.029Z,24.27
2019-02-17T03:27:14.691Z,24.25
2019-02-17T03:29:44.453Z,24.27
2019-02-17T03:32:14.153Z,23.90
2019-02-17T03:34:43.880Z,24.27
2019-02-17T03:37:13.579Z,24.57
2019-02-17T03:39:43.341Z,23.42
2019-02-17T03:42:13.111Z,23.38
2019-02-17T03:44:42.838Z,23.35
2019-02-17T03:47:12.520Z,23.90
2019-02-17T03:49:42.209Z,24.80
2019-02-17T03:52:11.971Z,24.57
2019-02-17T03:54:41.698Z,23.87
2019-02-17T03:57:11.385Z,24.50
2019-02-17T03:59:41.118Z,23.38
2019-02-17T04:02:10.797Z,23.90
2019-02-17T04:04:40.479Z,24.50
2019-02-17T04:07:10.211Z,24.23
2019-02-17T04:09:39.934Z,23.98
2019-02-17T04:12:09.680Z,23.50
2019-02-17T04:14:39.373Z,23.18
2019-02-17T04:17:09.213Z,23.38
2019-02-17T04:19:39.002Z,25.90
2019-02-17T04:22:08.664Z,22.15
2019-02-17T04:24:38.424Z,23.62
2019-02-17T04:27:08.099Z,22.67
2019-02-17T04:29:37.865Z,23.12
2019-02-17T04:32:07.551Z,23.47
2019-02-17T04:34:37.233Z,23.00
2019-02-17T04:37:07.094Z,24.27
2019-02-17T04:39:36.835Z,23.80
2019-02-17T04:42:06.589Z,23.10
2019-02-17T04:44:36.287Z,22.98
2019-02-17T04:47:06.034Z,24.57
2019-02-17T04:49:35.704Z,23.95
2019-02-17T04:52:05.383Z,22.60
2019-02-17T04:54:35.051Z,23.45
2019-02-17T04:57:04.787Z,23.92
2019-02-17T04:59:34.764Z,23.92
2019-02-17T05:02:04.479Z,23.92
2019-02-17T05:04:34.217Z,23.40
2019-02-17T05:07:03.967Z,22.50
2019-02-17T05:09:33.674Z,22.20
2019-02-17T05:12:03.411Z,23.50
2019-02-17T05:14:33.164Z,22.05
2019-02-17T05:17:02.902Z,24.12
2019-02-17T05:19:32.711Z,22.40
2019-02-17T05:22:02.478Z,22.65
2019-02-17T05:24:32.212Z,23.65
2019-02-17T05:27:01.896Z,23.65
2019-02-17T05:29:31.576Z,23.32
2019-02-17T05:32:01.349Z,23.12
2019-02-17T05:34:31.047Z,23.10
2019-02-17T05:37:00.733Z,21.75
2019-02-17T05:39:30.501Z,23.70
2019-02-17T05:42:00.244Z,22.82
2019-02-17T05:44:30.012Z,22.67
2019-02-17T05:46:59.755Z,22.90
2019-02-17T05:49:29.431Z,22.98
2019-02-17T05:51:59.123Z,22.37
2019-02-17T05:54:28.848Z,24.07
2019-02-17T05:56:58.520Z,22.73
2019-02-17T05:59:28.207Z,22.98
2019-02-17T06:01:57.905Z,23.83
2019-02-17T06:04:27.559Z,23.45
2019-02-17T06:06:57.250Z,23.15
2019-02-17T06:09:26.898Z,23.30
2019-02-17T06:11:56.584Z,23.18
2019-02-17T06:14:26.269Z,23.50
2019-02-17T06:16:56.034Z,23.40
2019-02-17T06:19:25.783Z,23.47
2019-02-17T06:21:55.452Z,22.73
2019-02-17T06:24:25.177Z,23.70
2019-02-17T06:26:54.907Z,23.07
2019-02-17T06:29:24.675Z,23.38
2019-02-17T06:31:54.340Z,23.80
2019-02-17T06:34:24.108Z,23.18
2019-02-17T06:36:53.836Z,22.02
2019-02-17T06:39:23.590Z,22.20
2019-02-17T06:41:53.264Z,23.35
2019-02-17T06:44:24.097Z,22.62
2019-02-17T06:46:55.439Z,22.95
2019-02-17T06:49:25.207Z,22.48
2019-02-17T06:51:55.105Z,24.20
2019-02-17T06:54:26.148Z,22.37
2019-02-17T06:56:57.533Z,21.62
2019-02-17T06:59:27.296Z,23.25
2019-02-17T07:01:57.224Z,22.50
2019-02-17T07:04:34.541Z,32.08
2019-02-17T07:07:05.051Z,21.77
2019-02-17T07:09:34.780Z,20.20
2019-02-17T07:12:04.578Z,20.37
2019-02-17T07:14:34.362Z,19.77
2019-02-17T07:17:04.119Z,19.50
2019-02-17T07:19:33.909Z,19.95
2019-02-17T07:22:03.634Z,20.45
2019-02-17T07:24:33.452Z,20.23
2019-02-17T07:27:03.154Z,20.43
2019-02-17T07:29:33.009Z,18.80
2019-02-17T07:32:03.181Z,16.73
2019-02-17T07:34:33.036Z,18.30
2019-02-17T07:37:02.880Z,18.90
2019-02-17T07:39:32.819Z,18.42
2019-02-17T07:42:02.928Z,17.23
2019-02-17T07:44:32.728Z,18.50
2019-02-17T07:47:02.735Z,18.60
2019-02-17T07:49:32.475Z,17.20
2019-02-17T07:52:02.154Z,17.67
2019-02-17T07:54:32.000Z,18.10
2019-02-17T07:57:01.815Z,17.75
2019-02-17T07:59:31.584Z,18.87
2019-02-17T08:02:01.274Z,18.75
2019-02-17T08:04:30.947Z,18.57
2019-02-17T08:07:00.701Z,19.03
2019-02-17T08:09:30.464Z,18.23
2019-02-17T08:12:00.151Z,18.40
2019-02-17T08:14:29.848Z,18.93
2019-02-17T08:16:59.584Z,17.43
2019-02-17T08:19:29.276Z,17.33
2019-02-17T08:21:58.982Z,17.97
2019-02-17T08:24:28.740Z,17.50
2019-02-17T08:26:58.407Z,17.20
2019-02-17T08:29:28.147Z,18.23
2019-02-17T08:31:57.907Z,18.23
2019-02-17T08:34:27.671Z,18.80
2019-02-17T08:36:58.499Z,19.47
2019-02-17T08:39:29.259Z,18.37
2019-02-17T08:41:58.976Z,19.00
2019-02-17T08:44:28.748Z,17.73
2019-02-17T08:46:58.471Z,17.63
2019-02-17T08:49:28.223Z,17.73
2019-02-17T08:51:57.986Z,17.47
2019-02-17T08:54:27.732Z,18.07
2019-02-17T08:56:57.431Z,18.20
2019-02-17T08:59:27.088Z,18.27
2019-02-17T09:02:05.734Z,18.23
2019-02-17T09:04:28.178Z,18.23
2019-02-17T09:06:57.956Z,18.43
2019-02-17T09:09:27.786Z,19.70
2019-02-17T09:11:57.464Z,20.47
2019-02-17T09:14:27.201Z,18.07
2019-02-17T09:16:56.900Z,18.73
2019-02-17T09:19:26.684Z,18.17
2019-02-17T09:21:56.432Z,18.30
2019-02-17T09:24:26.211Z,18.40
2019-02-17T09:26:55.941Z,17.50
2019-02-17T09:29:25.647Z,18.10
2019-02-17T09:31:55.404Z,17.70
2019-02-17T09:34:25.098Z,18.20
2019-02-17T09:36:54.848Z,18.40
2019-02-17T09:39:24.626Z,18.47
2019-02-17T09:41:54.368Z,18.50
2019-02-17T09:44:24.143Z,18.10
2019-02-17T09:46:53.815Z,18.83
2019-02-17T09:49:23.523Z,18.67
2019-02-17T09:51:53.287Z,17.50
2019-02-17T09:54:23.192Z,18.70
2019-02-17T09:56:54.540Z,18.07
2019-02-17T09:59:24.234Z,18.13
2019-02-17T10:01:53.923Z,17.10
2019-02-17T10:04:23.674Z,17.10
2019-02-17T10:06:53.375Z,16.60
2019-02-17T10:09:23.131Z,17.10
2019-02-17T10:11:52.911Z,17.13
2019-02-17T10:14:22.599Z,16.07
2019-02-17T10:16:52.352Z,16.13
2019-02-17T10:19:22.039Z,16.57
2019-02-17T10:21:51.716Z,16.37
2019-02-17T10:24:21.570Z,17.03
2019-02-17T10:26:51.317Z,16.27
2019-02-17T10:29:21.066Z,15.87
2019-02-17T10:31:50.748Z,15.70
2019-02-17T10:34:20.528Z,16.30
2019-02-17T10:36:50.319Z,15.63
2019-02-17T10:39:20.078Z,16.57
2019-02-17T10:41:49.868Z,16.10
2019-02-17T10:44:19.635Z,16.87
2019-02-17T10:46:49.339Z,15.83
2019-02-17T10:49:19.457Z,16.33
2019-02-17T10:51:49.290Z,16.10
2019-02-17T10:54:19.041Z,16.00
2019-02-17T10:56:48.825Z,15.77
2019-02-17T10:59:18.596Z,16.17
2019-02-17T11:01:48.315Z,16.70
2019-02-17T11:04:18.096Z,16.43
2019-02-17T11:06:48.058Z,16.43
2019-02-17T11:09:20.500Z,16.47
2019-02-17T11:11:50.194Z,16.33
2019-02-17T11:14:20.069Z,16.37
2019-02-17T11:16:51.012Z,16.43
2019-02-17T11:19:20.932Z,15.30
2019-02-17T11:21:56.916Z,15.63
2019-02-17T11:24:26.592Z,15.27
2019-02-17T11:26:56.364Z,16.10
2019-02-17T11:29:26.109Z,17.07
2019-02-17T11:31:55.818Z,15.43
2019-02-17T11:34:25.586Z,15.63
2019-02-17T11:36:55.360Z,15.50
2019-02-17T11:39:25.192Z,15.37
2019-02-17T11:41:54.876Z,16.20
2019-02-17T11:44:24.648Z,16.23
2019-02-17T11:46:54.316Z,15.43
2019-02-17T11:49:24.003Z,15.07
2019-02-17T11:51:53.757Z,15.40
2019-02-17T11:54:23.869Z,15.63
2019-02-17T11:56:53.639Z,15.00
2019-02-17T11:59:23.398Z,14.90
2019-02-17T12:01:53.161Z,14.57
2019-02-17T12:04:22.833Z,14.43
2019-02-17T12:06:52.540Z,15.03
2019-02-17T12:09:22.315Z,14.43
2019-02-17T12:11:51.977Z,15.07
2019-02-17T12:14:21.660Z,14.43
2019-02-17T12:16:51.420Z,13.10
2019-02-17T12:19:21.118Z,14.43
2019-02-17T12:21:55.196Z,14.47
2019-02-17T12:24:26.687Z,13.87
2019-02-17T12:27:00.797Z,14.27
2019-02-17T12:29:32.194Z,14.30
2019-02-17T12:32:01.976Z,13.10
2019-02-17T12:34:31.708Z,14.03
2019-02-17T12:37:01.412Z,13.17
2019-02-17T12:39:32.229Z,13.20
2019-02-17T12:42:01.920Z,13.80
2019-02-17T12:44:31.667Z,13.23
2019-02-17T12:47:01.377Z,12.90
2019-02-17T12:49:31.202Z,13.70
2019-02-17T12:52:00.888Z,13.67
2019-02-17T12:54:30.657Z,13.60
2019-02-17T12:57:00.339Z,12.03
2019-02-17T12:59:30.022Z,14.33
2019-02-17T13:01:59.716Z,14.50
2019-02-17T13:04:29.538Z,13.30
2019-02-17T13:06:59.347Z,13.80
2019-02-17T13:09:29.140Z,13.17
2019-02-17T13:11:58.867Z,12.63
2019-02-17T13:14:28.558Z,13.10
2019-02-17T13:16:58.347Z,12.47
2019-02-17T13:19:28.335Z,12.57
2019-02-17T13:21:58.343Z,13.20
2019-02-17T13:24:28.030Z,13.20
2019-02-17T13:26:57.801Z,12.03
2019-02-17T13:29:27.574Z,12.80
2019-02-17T13:31:57.300Z,12.47
2019-02-17T13:34:27.475Z,16.90
2019-02-17T13:36:57.241Z,13.10
2019-02-17T13:39:27.015Z,15.90
2019-02-17T13:41:56.686Z,13.00
2019-02-17T13:44:26.639Z,12.23
2019-02-17T13:46:56.434Z,12.03
2019-02-17T13:49:26.172Z,11.87
2019-02-17T13:51:55.947Z,11.43
2019-02-17T13:54:25.712Z,12.00
2019-02-17T13:56:55.389Z,12.47
2019-02-17T13:59:25.117Z,11.37
2019-02-17T14:01:54.883Z,11.30
2019-02-17T14:04:24.630Z,11.47
2019-02-17T14:06:54.585Z,10.93
2019-02-17T14:09:24.447Z,12.73
2019-02-17T14:11:54.121Z,11.20
2019-02-17T14:14:23.807Z,11.53
2019-02-17T14:16:53.573Z,12.53
2019-02-17T14:19:23.325Z,11.33
2019-02-17T14:21:53.000Z,11.17
2019-02-17T14:24:22.689Z,11.80
2019-02-17T14:26:52.433Z,11.77
2019-02-17T14:29:22.221Z,11.30
2019-02-17T14:31:51.974Z,10.87
2019-02-17T14:34:25.010Z,11.57
2019-02-17T14:36:54.860Z,11.13
2019-02-17T14:39:24.719Z,10.97
2019-02-17T14:41:54.400Z,10.53
2019-02-17T14:44:24.092Z,10.43
2019-02-17T14:46:53.825Z,10.67
2019-02-17T14:49:23.531Z,9.73
2019-02-17T14:51:53.224Z,10.07
2019-02-17T14:54:22.973Z,11.13
2019-02-17T14:56:52.667Z,10.23
2019-02-17T14:59:22.421Z,10.63
2019-02-17T15:01:52.193Z,10.40
2019-02-17T15:04:22.932Z,10.60
2019-02-17T15:06:52.737Z,10.20
2019-02-17T15:09:22.508Z,10.00
2019-02-17T15:11:52.274Z,9.60
2019-02-17T15:14:22.021Z,10.90
2019-02-17T15:16:51.779Z,10.23
2019-02-17T15:19:21.608Z,10.63
2019-02-17T15:21:51.300Z,9.73
2019-02-17T15:24:21.039Z,9.10
2019-02-17T15:26:50.721Z,9.77
2019-02-17T15:29:20.483Z,9.73
2019-02-17T15:31:50.171Z,9.43
2019-02-17T15:34:19.938Z,9.13
2019-02-17T15:36:49.634Z,10.13
2019-02-17T15:39:19.396Z,8.77
2019-02-17T15:41:49.062Z,8.50
2019-02-17T15:44:18.754Z,8.93
2019-02-17T15:46:48.527Z,9.07
2019-02-17T15:49:18.375Z,8.90
2019-02-17T15:51:48.121Z,7.93
2019-02-17T15:54:17.880Z,10.27
2019-02-17T15:56:47.589Z,9.90
2019-02-17T15:59:17.503Z,9.40
2019-02-17T16:01:47.340Z,9.63
2019-02-17T16:04:17.121Z,9.53
2019-02-17T16:06:46.890Z,10.47
2019-02-17T16:09:16.552Z,9.93
2019-02-17T16:11:46.269Z,10.37
2019-02-17T16:14:15.981Z,10.20
2019-02-17T16:16:45.719Z,10.60
2019-02-17T16:19:15.426Z,10.83
2019-02-17T16:21:45.182Z,10.20
2019-02-17T16:24:14.951Z,9.83
2019-02-17T16:26:44.642Z,11.10
2019-02-17T16:29:14.410Z,9.40
2019-02-17T16:31:44.201Z,10.87
2019-02-17T16:34:13.940Z,11.20
2019-02-17T16:36:43.619Z,10.97
2019-02-17T16:39:13.303Z,10.53
2019-02-17T16:41:43.061Z,11.13
2019-02-17T16:44:12.809Z,10.60
2019-02-17T16:46:42.632Z,10.17
2019-02-17T16:49:12.392Z,9.77
2019-02-17T16:51:42.072Z,9.90
2019-02-17T16:54:11.868Z,10.10
2019-02-17T16:56:41.607Z,11.33
2019-02-17T16:59:11.385Z,11.83
2019-02-17T17:01:41.121Z,12.03
2019-02-17T17:04:10.886Z,11.30
2019-02-17T17:06:40.647Z,11.83
2019-02-17T17:09:10.426Z,10.17
2019-02-17T17:11:40.300Z,10.60
2019-02-17T17:14:09.976Z,10.23
2019-02-17T17:16:39.694Z,10.80
2019-02-17T17:19:09.447Z,12.03
2019-02-17T17:21:39.133Z,10.60
2019-02-17T17:24:08.823Z,11.87
2019-02-17T17:26:38.521Z,13.17
2019-02-17T17:29:08.188Z,13.00
2019-02-17T17:31:37.895Z,12.07
2019-02-17T17:34:07.689Z,11.77
2019-02-17T17:36:38.519Z,12.60
2019-02-17T17:39:08.275Z,11.73
2019-02-17T17:41:37.965Z,14.57
2019-02-17T17:44:07.661Z,15.13
2019-02-17T17:46:37.332Z,11.50
2019-02-17T17:49:07.020Z,10.03
2019-02-17T17:51:36.761Z,9.80
2019-02-17T17:54:06.517Z,9.77
2019-02-17T17:56:36.192Z,9.20
2019-02-17T17:59:06.036Z,11.03
2019-02-17T18:01:35.806Z,14.43
2019-02-17T18:04:05.587Z,14.97
2019-02-17T18:06:35.372Z,23.53
2019-02-17T18:09:06.085Z,15.53
2019-02-17T18:11:36.786Z,11.37
2019-02-17T18:14:06.527Z,12.07
2019-02-17T18:16:36.885Z,26.33
2019-02-17T18:19:06.647Z,59.70
2019-02-17T18:21:36.405Z,21.87
2019-02-17T18:24:06.182Z,15.87
2019-02-17T18:26:35.846Z,15.10
2019-02-17T18:29:05.552Z,17.00
2019-02-17T18:31:35.405Z,14.40
2019-02-17T18:34:05.356Z,12.60
2019-02-17T18:36:35.302Z,12.80
2019-02-17T18:39:06.018Z,20.27
2019-02-17T18:41:36.100Z,29.33
2019-02-17T18:44:07.052Z,15.33
2019-02-17T18:46:37.054Z,12.30
2019-02-17T18:49:07.611Z,11.73
2019-02-17T18:51:37.628Z,11.20
2019-02-17T18:54:07.511Z,10.70
2019-02-17T18:56:38.890Z,9.60
2019-02-17T18:59:10.737Z,8.90
2019-02-17T19:01:41.727Z,9.30
2019-02-17T19:04:11.452Z,11.30
2019-02-17T19:06:41.135Z,8.77
2019-02-17T19:09:10.873Z,9.40
2019-02-17T19:11:40.715Z,7.73
2019-02-17T19:14:10.467Z,7.97
2019-02-17T19:16:40.165Z,8.90
2019-02-17T19:19:09.904Z,8.03
2019-02-17T19:21:43.716Z,8.77
2019-02-17T19:24:13.388Z,9.17
2019-02-17T19:26:43.087Z,9.13
2019-02-17T19:29:14.489Z,21.70
2019-02-17T19:31:45.915Z,15.40
2019-02-17T19:34:17.344Z,13.87
2019-02-17T19:36:47.586Z,10.80
2019-02-17T19:39:17.820Z,10.67
2019-02-17T19:41:47.541Z,10.30
2019-02-17T19:44:17.819Z,9.27
2019-02-17T19:46:51.260Z,10.00
2019-02-17T19:49:22.230Z,16.23
2019-02-17T19:51:52.386Z,19.87
2019-02-17T19:54:23.698Z,16.77
2019-02-17T19:56:55.173Z,19.67
2019-02-17T19:59:25.509Z,21.93
2019-02-17T20:01:56.233Z,22.17
2019-02-17T20:04:28.092Z,14.73
2019-02-17T20:06:59.962Z,11.50
2019-02-17T20:09:30.112Z,12.77
2019-02-17T20:12:00.184Z,11.57
2019-02-17T20:14:31.773Z,12.13
2019-02-17T20:17:01.908Z,12.23
2019-02-17T20:19:32.216Z,11.37
2019-02-17T20:22:02.318Z,11.57
2019-02-17T20:24:33.422Z,10.70
2019-02-17T20:27:06.685Z,11.43
2019-02-17T20:29:38.735Z,12.40
2019-02-17T20:32:10.269Z,11.13
2019-02-17T20:34:41.040Z,10.20
2019-02-17T20:37:12.355Z,10.37
2019-02-17T20:39:43.601Z,9.67
2019-02-17T20:42:15.063Z,9.63
2019-02-17T20:44:45.260Z,10.13
2019-02-17T20:47:14.974Z,8.93
2019-02-17T20:49:45.397Z,9.47
2019-02-17T20:52:16.376Z,9.77
2019-02-17T20:54:48.707Z,9.00
2019-02-17T20:57:22.302Z,10.53
2019-02-17T20:59:52.547Z,10.90
2019-02-17T21:02:22.760Z,10.20
2019-02-17T21:04:53.181Z,10.33
2019-02-17T21:07:23.088Z,10.70
2019-02-17T21:09:53.933Z,11.57
2019-02-17T21:12:25.334Z,11.70
2019-02-17T21:14:56.297Z,10.90
2019-02-17T21:17:28.328Z,10.07
2019-02-17T21:19:58.293Z,10.67
2019-02-17T21:22:28.523Z,10.03
2019-02-17T21:24:58.243Z,10.40
2019-02-17T21:27:28.009Z,9.30
2019-02-17T21:29:59.086Z,10.13
2019-02-17T21:32:28.854Z,10.27
2019-02-17T21:34:58.598Z,9.73
2019-02-17T21:37:28.395Z,9.77
2019-02-17T21:39:58.235Z,9.93
2019-02-17T21:42:28.069Z,10.17
2019-02-17T21:44:57.813Z,9.90
2019-02-17T21:47:27.736Z,10.50
2019-02-17T21:49:57.635Z,12.17
2019-02-17T21:52:27.324Z,11.30
2019-02-17T21:54:57.082Z,13.27
2019-02-17T21:57:26.781Z,14.43
2019-02-17T21:59:57.511Z,13.80
2019-02-17T22:02:27.216Z,14.43
2019-02-17T22:04:56.896Z,14.13
2019-02-17T22:07:26.646Z,13.33
2019-02-17T22:09:56.324Z,14.50
2019-02-17T22:12:26.069Z,15.13
2019-02-17T22:14:55.840Z,13.97
2019-02-17T22:17:25.494Z,16.03
2019-02-17T22:19:55.207Z,17.43
2019-02-17T22:22:24.968Z,17.37
2019-02-17T22:24:54.728Z,16.37
2019-02-17T22:27:24.495Z,14.73
2019-02-17T22:29:54.179Z,14.13
2019-02-17T22:32:23.936Z,13.50
2019-02-17T22:34:53.700Z,15.10
2019-02-17T22:37:23.387Z,17.30
2019-02-17T22:39:53.068Z,15.17
2019-02-17T22:42:23.171Z,14.23
2019-02-17T22:44:52.857Z,12.57
2019-02-17T22:47:22.591Z,12.50
2019-02-17T22:49:52.346Z,12.05
2019-02-17T22:52:22.059Z,10.67
2019-02-17T22:54:51.768Z,10.10
2019-02-17T22:57:21.480Z,10.37
2019-02-17T22:59:51.256Z,9.67
2019-02-17T23:02:22.633Z,9.58
2019-02-17T23:04:52.699Z,9.73
2019-02-17T23:07:22.632Z,9.90
2019-02-17T23:09:52.486Z,9.63
2019-02-17T23:12:32.924Z,10.30
2019-02-17T23:15:06.176Z,10.08
2019-02-17T23:17:36.290Z,10.30
2019-02-17T23:20:07.721Z,8.78
2019-02-17T23:22:37.713Z,9.08
2019-02-17T23:25:09.257Z,9.60
2019-02-17T23:27:39.181Z,8.80
2019-02-17T23:30:11.166Z,9.30
2019-02-17T23:32:41.092Z,9.65
2019-02-17T23:35:11.250Z,9.05
2019-02-17T23:37:41.131Z,8.45
2019-02-17T23:40:11.779Z,9.08
2019-02-17T23:42:41.776Z,9.10
2019-02-17T23:45:13.490Z,9.08
2019-02-17T23:47:43.416Z,9.40
2019-02-17T23:50:14.796Z,9.03
2019-02-17T23:52:44.685Z,9.18
2019-02-17T23:55:14.782Z,9.98
2019-02-17T23:57:44.658Z,9.80
